Time;durP1;ratioP1;P1;durP2;ratioP2;P2;SDS_P1;SDS_P2;PMS_P1;PMS_P2;Temp;Humidity;BMP_temperature;BMP_pressure;BME280_temperature;BME280_humidity;BME280_pressure;Samples;Min_cycle;Max_cycle;Signal;HPM_P1;HPM_P2
2022/12/24 00:01:53;;;;;;;34.65;6.47;;;12.00;61.70;;;;;;5076460;28;20375;-73
2022/12/24 00:04:19;;;;;;;33.13;6.40;;;12.00;60.80;;;;;;5075861;28;20440;-71
2022/12/24 00:06:44;;;;;;;27.73;6.00;;;12.00;60.40;;;;;;5074761;28;20394;-72
2022/12/24 00:09:10;;;;;;;35.63;6.67;;;12.00;60.60;;;;;;5076952;28;20598;-72
2022/12/24 00:11:35;;;;;;;35.95;6.55;;;12.00;60.70;;;;;;5074372;28;20388;-72
2022/12/24 00:14:01;;;;;;;37.42;6.65;;;11.90;60.80;;;;;;5075810;28;20426;-72
2022/12/24 00:16:26;;;;;;;33.60;6.63;;;11.90;60.60;;;;;;5077970;28;20395;-73
2022/12/24 00:18:52;;;;;;;33.73;6.07;;;11.80;61.50;;;;;;5075256;28;20380;-73
2022/12/24 00:21:18;;;;;;;28.87;6.27;;;11.70;61.90;;;;;;5072800;28;20418;-73
2022/12/24 00:23:43;;;;;;;29.37;6.40;;;11.70;62.20;;;;;;5076371;28;20409;-73
2022/12/24 00:26:09;;;;;;;33.20;6.03;;;11.70;62.90;;;;;;5086311;28;20379;-73
2022/12/24 00:28:35;;;;;;;34.03;6.20;;;11.70;63.60;;;;;;5088674;28;20387;-73
2022/12/24 00:31:07;;;;;;;28.83;6.37;;;11.60;62.80;;;;;;5084799;28;20423;-73
2022/12/24 00:33:33;;;;;;;39.47;6.65;;;11.70;62.50;;;;;;5074287;28;20419;-74
2022/12/24 00:35:58;;;;;;;34.87;6.90;;;11.70;62.80;;;;;;5072096;28;20850;-73
2022/12/24 00:38:24;;;;;;;30.33;5.97;;;11.60;62.00;;;;;;5070686;28;20384;-73
2022/12/24 00:40:49;;;;;;;38.65;7.15;;;11.60;62.30;;;;;;5071478;28;20412;-73
2022/12/24 00:43:15;;;;;;;25.60;5.88;;;11.40;64.80;;;;;;5071360;28;21021;-73
2022/12/24 00:45:40;;;;;;;38.37;7.00;;;11.30;65.30;;;;;;5072096;28;20430;-73
2022/12/24 00:48:06;;;;;;;42.30;7.37;;;11.20;66.70;;;;;;5070282;28;20403;-73
2022/12/24 00:50:31;;;;;;;33.70;6.63;;;11.10;68.80;;;;;;5071515;28;20383;-73
2022/12/24 00:52:57;;;;;;;32.22;7.05;;;10.90;70.60;;;;;;5070458;28;20391;-73
2022/12/24 00:55:23;;;;;;;48.35;7.70;;;10.80;72.50;;;;;;5072031;28;20425;-73
2022/12/24 00:57:48;;;;;;;41.42;7.13;;;10.80;73.00;;;;;;5071505;28;20405;-73
2022/12/24 01:00:16;;;;;;;44.08;7.47;;;10.80;74.30;;;;;;5072260;28;20522;-73
2022/12/24 01:02:42;;;;;;;34.42;7.60;;;10.80;75.60;;;;;;5071532;28;20427;-73
2022/12/24 01:05:09;;;;;;;40.00;7.50;;;10.80;75.30;;;;;;5071650;28;20379;-74
2022/12/24 01:07:37;;;;;;;46.45;7.72;;;10.90;75.90;;;;;;5074084;28;20387;-73
2022/12/24 01:10:04;;;;;;;37.58;7.20;;;10.90;74.90;;;;;;5072133;28;20384;-73
2022/12/24 01:12:29;;;;;;;40.47;7.47;;;10.90;76.00;;;;;;5070120;28;20388;-73
2022/12/24 01:14:55;;;;;;;37.30;7.40;;;10.90;75.80;;;;;;5073632;28;20380;-73
2022/12/24 01:17:20;;;;;;;52.70;8.30;;;11.00;76.30;;;;;;5073051;28;20413;-73
2022/12/24 01:19:46;;;;;;;40.77;7.53;;;11.00;76.00;;;;;;5075489;28;20740;-73
2022/12/24 01:22:12;;;;;;;38.27;7.63;;;11.10;76.10;;;;;;5073303;28;20390;-73
2022/12/24 01:24:40;;;;;;;35.90;7.20;;;11.20;75.60;;;;;;5076979;28;20387;-73
2022/12/24 01:27:05;;;;;;;36.90;6.90;;;11.20;75.70;;;;;;5082239;28;20404;-73
2022/12/24 01:29:31;;;;;;;43.03;7.82;;;11.30;75.80;;;;;;5082118;28;20375;-73
2022/12/24 01:31:57;;;;;;;39.65;7.35;;;11.30;74.80;;;;;;5081720;28;20384;-73
2022/12/24 01:34:22;;;;;;;41.60;7.65;;;11.40;74.50;;;;;;5081454;28;20403;-73
2022/12/24 01:36:48;;;;;;;41.70;6.80;;;11.40;74.90;;;;;;5075839;28;20433;-73
2022/12/24 01:39:13;;;;;;;36.73;7.17;;;11.30;75.80;;;;;;5074701;28;20387;-73
2022/12/24 01:44:30;;;;;;;42.72;7.93;;;11.20;78.90;;;;;;5074430;28;20375;-73
2022/12/24 01:47:14;;;;;;;41.70;7.60;;;11.40;77.30;;;;;;5074597;28;20437;-73
2022/12/24 01:49:49;;;;;;;31.40;7.35;;;11.30;78.80;;;;;;5074507;28;20387;-73
2022/12/24 01:52:19;;;;;;;40.92;6.97;;;11.30;79.70;;;;;;5073754;28;20391;-73
2022/12/24 01:55:06;;;;;;;35.90;7.25;;;11.20;80.50;;;;;;5074563;28;20391;-73
2022/12/24 01:57:53;;;;;;;36.77;7.10;;;11.10;81.20;;;;;;5074168;28;20519;-73
2022/12/24 02:00:19;;;;;;;40.53;7.03;;;11.10;82.00;;;;;;5073123;28;20791;-73
2022/12/24 02:02:49;;;;;;;38.10;7.10;;;11.00;83.60;;;;;;5073677;28;20388;-74
2022/12/24 02:05:35;;;;;;;38.47;6.82;;;11.00;83.60;;;;;;5072838;28;20387;-73
2022/12/24 02:08:02;;;;;;;42.33;6.45;;;11.00;82.40;;;;;;5074083;28;20491;-73
2022/12/24 02:10:28;;;;;;;44.38;7.38;;;10.90;83.40;;;;;;5072373;28;20398;-73
2022/12/24 02:12:54;;;;;;;32.23;7.20;;;10.90;82.70;;;;;;5073153;28;20462;-73
2022/12/24 02:15:20;;;;;;;38.53;6.88;;;10.80;84.50;;;;;;5074125;28;20445;-73
2022/12/24 02:18:04;;;;;;;38.85;6.53;;;10.90;84.30;;;;;;5072969;28;20411;-73
2022/12/24 02:21:03;;;;;;;38.65;7.05;;;10.90;82.50;;;;;;5075891;28;20407;-76
2022/12/24 02:23:58;;;;;;;37.90;6.80;;;10.80;82.80;;;;;;5048231;28;20399;-73
2022/12/24 02:26:54;;;;;;;42.60;7.65;;;10.70;83.90;;;;;;5073223;28;20748;-73
2022/12/24 02:29:38;;;;;;;33.13;6.90;;;10.60;85.20;;;;;;5072583;28;20399;-73
2022/12/24 02:32:36;;;;;;;41.65;6.93;;;10.50;86.20;;;;;;5075744;28;20390;-73
2022/12/24 02:35:08;;;;;;;43.08;6.13;;;10.50;85.20;;;;;;5075357;28;20395;-73
2022/12/24 02:37:40;;;;;;;39.30;6.03;;;10.40;84.60;;;;;;5077664;28;20402;-73
2022/12/24 02:40:21;;;;;;;40.55;7.30;;;10.20;87.20;;;;;;5075599;28;21256;-73
2022/12/24 02:42:57;;;;;;;42.03;8.00;;;10.10;90.10;;;;;;5072612;28;20372;-73
2022/12/24 02:45:29;;;;;;;28.27;7.30;;;10.10;90.00;;;;;;5073627;28;20424;-73
2022/12/24 02:47:56;;;;;;;41.80;6.60;;;10.00;90.50;;;;;;5073378;28;20380;-73
2022/12/24 02:50:22;;;;;;;34.25;6.88;;;10.00;90.60;;;;;;5073392;28;20388;-73
2022/12/24 02:52:49;;;;;;;37.85;6.00;;;10.00;90.90;;;;;;5089622;22;20487;-76
2022/12/24 02:55:45;;;;;;;38.10;6.95;;;9.90;91.50;;;;;;5054276;28;20569;-77
2022/12/24 02:58:38;;;;;;;30.38;6.28;;;10.00;91.00;;;;;;5054172;28;20402;-78
2022/12/24 03:01:16;;;;;;;46.30;6.93;;;10.00;91.30;;;;;;5054346;28;20412;-77
2022/12/24 03:03:47;;;;;;;35.92;7.28;;;10.00;89.60;;;;;;5058714;28;20381;-77
2022/12/24 03:06:28;;;;;;;30.50;5.45;;;10.00;90.40;;;;;;5055391;28;20393;-76
2022/12/24 03:09:13;;;;;;;43.45;7.03;;;10.00;90.80;;;;;;5054097;28;20511;-78
2022/12/24 03:11:48;;;;;;;34.55;6.38;;;10.00;90.50;;;;;;5069172;28;20471;-78
2022/12/24 03:14:14;;;;;;;35.72;6.60;;;9.90;92.30;;;;;;5057584;28;20377;-78
2022/12/24 03:16:41;;;;;;;37.20;6.30;;;10.00;93.60;;;;;;5058302;28;20408;-77
2022/12/24 03:19:07;;;;;;;29.65;6.93;;;10.00;93.40;;;;;;5058836;28;20385;-78
2022/12/24 03:21:35;;;;;;;36.35;6.85;;;10.20;91.30;;;;;;5057578;28;20445;-78
2022/12/24 03:24:02;;;;;;;37.35;6.82;;;10.30;89.40;;;;;;5056778;28;20788;-78
2022/12/24 03:26:31;;;;;;;36.00;6.38;;;10.30;90.10;;;;;;5057560;28;20385;-77
2022/12/24 03:28:56;;;;;;;34.28;6.40;;;10.40;90.30;;;;;;5056964;28;20390;-78
2022/12/24 03:31:22;;;;;;;35.83;6.35;;;10.60;88.00;;;;;;5059345;28;20439;-77
2022/12/24 03:33:48;;;;;;;40.25;7.80;;;10.60;86.80;;;;;;5055708;28;20397;-77
2022/12/24 03:36:14;;;;;;;35.30;7.30;;;10.70;86.70;;;;;;5055389;28;20414;-76
2022/12/24 03:38:40;;;;;;;37.50;6.63;;;10.80;85.70;;;;;;5070303;28;20389;-77
2022/12/24 03:41:06;;;;;;;45.97;7.20;;;10.80;85.50;;;;;;5053658;28;20476;-76
2022/12/24 03:43:32;;;;;;;40.03;6.97;;;10.80;85.80;;;;;;5055704;28;20374;-78
2022/12/24 03:46:02;;;;;;;40.50;6.40;;;10.90;85.20;;;;;;5058608;28;20421;-77
2022/12/24 03:48:27;;;;;;;31.30;6.13;;;11.00;84.80;;;;;;5053527;28;20745;-77
2022/12/24 03:50:53;;;;;;;29.97;5.50;;;11.10;84.80;;;;;;5057187;28;20385;-77
2022/12/24 03:53:18;;;;;;;37.10;5.97;;;11.10;84.80;;;;;;5056598;28;20389;-76
2022/12/24 03:55:45;;;;;;;37.30;6.30;;;11.10;85.10;;;;;;5058154;28;20372;-76
2022/12/24 03:58:11;;;;;;;28.77;5.70;;;11.10;85.70;;;;;;5059734;28;20388;-77
2022/12/24 04:00:36;;;;;;;31.07;6.20;;;11.10;85.60;;;;;;5079454;28;20393;-76
2022/12/24 04:03:02;;;;;;;29.53;5.83;;;11.10;85.90;;;;;;5064347;28;20377;-77
2022/12/24 04:05:27;;;;;;;31.40;5.10;;;11.10;86.50;;;;;;5059646;28;20398;-78
2022/12/24 04:07:53;;;;;;;32.40;6.10;;;11.10;86.50;;;;;;5055858;28;20411;-77
2022/12/24 04:10:19;;;;;;;24.42;4.90;;;11.00;87.40;;;;;;5052864;28;20828;-77
2022/12/24 04:12:44;;;;;;;21.15;5.10;;;11.00;88.90;;;;;;5052190;28;20450;-77
2022/12/24 04:15:10;;;;;;;26.30;5.17;;;11.00;89.60;;;;;;5067995;28;20404;-78
2022/12/24 04:17:36;;;;;;;26.52;5.80;;;10.90;90.10;;;;;;5051993;28;20882;-78
2022/12/24 04:20:01;;;;;;;27.95;5.18;;;10.90;90.70;;;;;;5052078;28;20390;-77
2022/12/24 04:22:27;;;;;;;24.20;5.25;;;11.00;89.90;;;;;;5051462;28;20373;-78
2022/12/24 04:24:53;;;;;;;22.10;4.60;;;11.00;88.80;;;;;;5051779;28;20381;-77
2022/12/24 04:27:18;;;;;;;25.38;5.20;;;11.00;88.30;;;;;;5067277;28;20425;-77
2022/12/24 04:29:44;;;;;;;20.40;5.07;;;11.10;88.40;;;;;;5053119;28;20388;-77
2022/12/24 04:32:09;;;;;;;20.60;5.03;;;11.10;86.70;;;;;;5062140;28;20409;-78
2022/12/24 04:34:36;;;;;;;21.47;4.60;;;11.10;86.00;;;;;;5061072;28;20397;-77
2022/12/24 04:37:01;;;;;;;21.92;4.80;;;11.20;85.70;;;;;;5076036;28;20428;-77
2022/12/24 04:39:27;;;;;;;14.50;4.40;;;11.20;84.80;;;;;;5076593;28;20505;-78
2022/12/24 04:41:53;;;;;;;22.50;5.18;;;11.20;84.80;;;;;;5076249;28;20449;-77
2022/12/24 04:44:18;;;;;;;18.42;4.22;;;11.20;85.10;;;;;;5076116;28;20397;-77
2022/12/24 04:46:44;;;;;;;19.70;4.57;;;11.10;87.70;;;;;;5061970;28;20442;-78
2022/12/24 04:49:09;;;;;;;23.77;4.70;;;11.10;89.10;;;;;;5054743;28;20714;-78
2022/12/24 04:51:35;;;;;;;24.87;4.63;;;11.10;89.80;;;;;;5069414;28;20397;-77
2022/12/24 04:54:01;;;;;;;24.63;4.95;;;11.10;89.60;;;;;;5056988;28;20820;-79
2022/12/24 04:56:30;;;;;;;27.08;5.03;;;11.10;90.10;;;;;;5057482;28;20572;-78
2022/12/24 04:58:57;;;;;;;23.45;4.88;;;11.00;92.90;;;;;;5059843;28;20385;-76
2022/12/24 05:01:24;;;;;;;23.42;4.63;;;11.00;92.70;;;;;;5059498;28;20437;-77
2022/12/24 05:03:50;;;;;;;24.05;5.07;;;11.00;91.90;;;;;;5057984;28;20391;-77
2022/12/24 05:06:19;;;;;;;22.40;4.50;;;11.00;93.70;;;;;;5062488;28;20449;-76
2022/12/24 05:08:45;;;;;;;18.70;4.63;;;11.00;92.30;;;;;;5068373;28;20397;-75
2022/12/24 05:11:13;;;;;;;21.30;5.13;;;11.10;92.00;;;;;;5069899;28;20385;-76
2022/12/24 05:13:40;;;;;;;24.60;5.07;;;11.10;91.80;;;;;;5056823;28;20377;-78
2022/12/24 05:16:06;;;;;;;19.95;4.30;;;11.00;91.40;;;;;;5052784;28;20409;-76
2022/12/24 05:18:31;;;;;;;24.07;5.07;;;11.00;89.70;;;;;;5053058;28;20385;-77
2022/12/24 05:20:57;;;;;;;19.10;4.80;;;11.00;90.40;;;;;;5053924;28;20587;-78
2022/12/24 05:26:23;;;;;;;26.35;5.30;;;10.90;91.60;;;;;;5054014;28;20438;-78
2022/12/24 05:28:55;;;;;;;24.57;5.37;;;10.90;91.80;;;;;;5051683;28;20394;-78
2022/12/24 05:31:22;;;;;;;21.15;4.72;;;10.90;91.20;;;;;;5051391;28;20382;-77
2022/12/24 05:33:48;;;;;;;18.55;4.97;;;11.00;89.70;;;;;;5058378;28;20755;-77
2022/12/24 05:36:14;;;;;;;25.10;5.43;;;11.00;89.70;;;;;;5076059;28;20413;-77
2022/12/24 05:38:40;;;;;;;25.77;5.55;;;11.00;88.80;;;;;;5051498;28;20389;-77
2022/12/24 05:41:08;;;;;;;25.48;4.85;;;11.00;89.90;;;;;;5050626;28;20404;-78
2022/12/24 05:43:34;;;;;;;24.27;5.15;;;11.00;88.30;;;;;;5051819;28;20392;-78
2022/12/24 05:46:05;;;;;;;27.07;5.33;;;11.00;89.10;;;;;;5053390;28;20410;-78
2022/12/24 05:48:31;;;;;;;23.23;5.20;;;11.00;89.50;;;;;;5052876;28;20460;-77
2022/12/24 05:50:57;;;;;;;25.73;5.18;;;10.90;90.30;;;;;;5057991;28;20381;-76
2022/12/24 05:53:23;;;;;;;23.70;4.63;;;11.10;88.60;;;;;;5062676;28;20431;-77
2022/12/24 05:55:48;;;;;;;20.23;5.27;;;11.10;88.10;;;;;;5068912;28;20388;-77
2022/12/24 05:58:14;;;;;;;27.27;5.40;;;11.10;88.40;;;;;;5059663;28;20788;-78
2022/12/24 06:00:40;;;;;;;25.55;6.18;;;11.00;89.20;;;;;;5067004;28;20743;-77
2022/12/24 06:03:06;;;;;;;26.77;5.13;;;11.00;89.30;;;;;;5052755;28;20862;-78
2022/12/24 06:05:31;;;;;;;23.70;5.38;;;11.00;89.00;;;;;;5054381;28;20400;-78
2022/12/24 06:07:57;;;;;;;22.15;5.30;;;11.00;88.60;;;;;;5055454;28;20435;-78
2022/12/24 06:10:22;;;;;;;26.43;5.93;;;11.00;88.00;;;;;;5054660;28;20480;-78
2022/12/24 06:12:48;;;;;;;25.13;5.97;;;11.00;88.60;;;;;;5056559;28;20952;-77
2022/12/24 06:15:13;;;;;;;28.30;5.00;;;10.90;89.10;;;;;;5059597;28;20412;-78
2022/12/24 06:17:39;;;;;;;29.97;5.40;;;10.90;89.20;;;;;;5069192;28;20412;-78
2022/12/24 06:20:06;;;;;;;20.60;5.30;;;10.80;90.70;;;;;;5066402;28;20445;-78
2022/12/24 06:22:31;;;;;;;32.72;5.93;;;10.70;92.30;;;;;;5060029;28;20939;-77
2022/12/24 06:24:57;;;;;;;33.47;5.60;;;10.60;94.40;;;;;;5074158;28;20427;-77
2022/12/24 06:27:22;;;;;;;27.40;6.35;;;10.60;94.90;;;;;;5060358;28;20468;-77
2022/12/24 06:29:48;;;;;;;32.80;6.78;;;10.60;94.90;;;;;;5060680;28;20437;-77
2022/12/24 06:32:14;;;;;;;31.00;6.53;;;10.60;96.60;;;;;;5062730;28;20892;-77
2022/12/24 06:34:39;;;;;;;28.00;6.17;;;10.60;96.80;;;;;;5059456;28;20382;-77
2022/12/24 06:37:05;;;;;;;26.67;5.83;;;10.70;95.60;;;;;;5074770;28;20482;-76
2022/12/24 06:39:31;;;;;;;31.55;6.13;;;10.70;95.00;;;;;;5058046;28;20382;-78
2022/12/24 06:41:56;;;;;;;32.17;6.88;;;10.70;94.30;;;;;;5053969;28;20507;-77
2022/12/24 06:44:22;;;;;;;29.25;6.28;;;10.80;93.50;;;;;;5053792;28;20432;-77
2022/12/24 06:46:48;;;;;;;28.63;6.13;;;10.70;93.40;;;;;;5054418;28;20385;-77
2022/12/24 06:49:13;;;;;;;27.42;6.75;;;10.80;92.70;;;;;;5055340;28;20381;-77
2022/12/24 06:51:39;;;;;;;36.05;6.88;;;10.80;91.80;;;;;;5054326;28;20382;-77
2022/12/24 06:54:04;;;;;;;35.50;6.97;;;10.80;92.60;;;;;;5054691;28;20873;-77
2022/12/24 06:56:30;;;;;;;27.35;6.60;;;10.60;94.60;;;;;;5071726;28;20485;-77
2022/12/24 06:58:55;;;;;;;32.58;6.22;;;10.60;95.60;;;;;;5055576;28;20381;-78
2022/12/24 07:01:23;;;;;;;35.60;7.13;;;10.70;95.40;;;;;;5069062;28;20452;-78
2022/12/24 07:03:49;;;;;;;34.17;7.68;;;10.70;95.00;;;;;;5078101;28;20389;-78
2022/12/24 07:06:19;;;;;;;29.00;5.75;;;10.70;94.30;;;;;;5078037;28;20381;-77
2022/12/24 07:08:45;;;;;;;35.92;6.70;;;10.70;94.20;;;;;;5077461;28;20412;-77
2022/12/24 07:11:10;;;;;;;25.13;6.40;;;10.80;92.80;;;;;;5055747;28;20480;-76
2022/12/24 07:13:36;;;;;;;36.77;7.90;;;10.80;93.10;;;;;;5055195;28;20447;-79
2022/12/24 07:16:03;;;;;;;43.27;7.17;;;10.80;93.10;;;;;;5071426;28;20758;-77
2022/12/24 07:18:30;;;;;;;45.08;8.00;;;10.80;92.90;;;;;;5057241;28;20412;-77
2022/12/24 07:20:56;;;;;;;36.22;7.63;;;10.90;90.60;;;;;;5055741;28;20413;-78
2022/12/24 07:23:22;;;;;;;35.58;7.35;;;10.90;89.90;;;;;;5053154;28;20447;-78
2022/12/24 07:25:47;;;;;;;39.07;7.23;;;10.80;90.70;;;;;;5053955;28;20398;-78
2022/12/24 07:28:13;;;;;;;39.43;6.80;;;10.70;91.90;;;;;;5069724;28;20390;-78
2022/12/24 07:30:39;;;;;;;35.90;7.57;;;10.70;92.70;;;;;;5071831;28;20411;-78
2022/12/24 07:33:04;;;;;;;34.35;7.38;;;10.50;93.40;;;;;;5053581;28;20393;-79
2022/12/24 07:35:30;;;;;;;32.37;7.10;;;10.40;95.30;;;;;;5054955;28;20416;-78
2022/12/24 07:37:55;;;;;;;37.30;7.70;;;10.30;96.50;;;;;;5055141;28;20408;-78
2022/12/24 07:40:21;;;;;;;44.60;8.00;;;10.20;97.10;;;;;;5057430;28;20384;-77
2022/12/24 07:42:47;;;;;;;48.03;7.70;;;10.20;97.40;;;;;;5055270;28;20449;-79
2022/12/24 07:45:12;;;;;;;43.15;8.05;;;10.10;98.50;;;;;;5055816;28;20435;-77
2022/12/24 07:47:38;;;;;;;32.55;7.15;;;10.00;99.90;;;;;;5055192;28;20468;-78
2022/12/24 07:50:04;;;;;;;39.28;7.95;;;10.00;99.90;;;;;;5070818;28;20412;-78
2022/12/24 07:52:30;;;;;;;46.65;7.95;;;10.00;99.90;;;;;;5054260;28;20382;-78
2022/12/24 07:54:56;;;;;;;48.45;8.73;;;10.10;99.40;;;;;;5053521;28;20413;-78
2022/12/24 07:57:21;;;;;;;44.20;8.40;;;10.00;98.90;;;;;;5053222;28;20898;-77
2022/12/24 07:59:47;;;;;;;47.43;8.20;;;10.00;99.90;;;;;;5053783;28;20385;-78
2022/12/24 08:02:12;;;;;;;36.47;8.60;;;10.00;99.90;;;;;;5070080;28;20425;-78
2022/12/24 08:04:38;;;;;;;43.90;7.10;;;10.00;99.90;;;;;;5054709;28;20385;-78
2022/12/24 08:07:05;;;;;;;41.27;8.80;;;10.10;99.20;;;;;;5055274;28;20386;-78
2022/12/24 08:09:32;;;;;;;42.50;7.68;;;10.10;99.00;;;;;;5054072;28;20396;-78
2022/12/24 08:11:58;;;;;;;33.15;7.78;;;10.10;98.50;;;;;;5054786;28;20735;-78
2022/12/24 08:14:23;;;;;;;43.15;8.60;;;10.10;98.10;;;;;;5053743;28;20393;-77
2022/12/24 08:16:49;;;;;;;40.13;8.48;;;10.10;97.60;;;;;;5053013;28;20914;-78
2022/12/24 08:19:14;;;;;;;49.80;7.90;;;10.10;98.70;;;;;;5053962;28;20377;-78
2022/12/24 08:21:40;;;;;;;47.30;8.10;;;10.00;99.80;;;;;;5052598;28;20751;-77
2022/12/24 08:24:06;;;;;;;46.03;8.18;;;10.10;99.50;;;;;;5053373;28;20745;-79
2022/12/24 08:26:31;;;;;;;38.72;8.20;;;10.10;99.50;;;;;;5056192;28;20814;-79
2022/12/24 08:28:57;;;;;;;35.75;7.90;;;10.20;97.10;;;;;;5055037;28;20389;-76
2022/12/24 08:31:23;;;;;;;55.38;8.75;;;10.30;95.90;;;;;;5056000;28;20396;-78
2022/12/24 08:33:48;;;;;;;40.30;8.73;;;10.30;94.90;;;;;;5056183;28;20392;-78
2022/12/24 08:36:14;;;;;;;41.80;8.23;;;10.40;93.60;;;;;;5072370;28;20416;-78
2022/12/24 08:38:39;;;;;;;36.77;8.20;;;10.50;91.00;;;;;;5056294;28;20385;-79
2022/12/24 08:41:05;;;;;;;35.37;7.73;;;10.50;90.40;;;;;;5055562;28;20396;-79
2022/12/24 08:43:30;;;;;;;37.03;7.23;;;10.60;90.50;;;;;;5062249;28;20413;-78
2022/12/24 08:46:02;;;;;;;43.22;8.18;;;10.60;90.60;;;;;;5060855;28;20385;-76
2022/12/24 08:48:28;;;;;;;41.33;7.97;;;10.70;88.80;;;;;;5062001;28;20388;-77
2022/12/24 08:50:53;;;;;;;37.05;7.40;;;10.80;87.60;;;;;;5060921;28;20393;-76
2022/12/24 08:53:19;;;;;;;34.53;7.43;;;10.80;85.80;;;;;;5073622;22;20879;-72
2022/12/24 08:55:44;;;;;;;46.90;7.38;;;10.90;84.60;;;;;;5090582;28;20758;-73
2022/12/24 08:58:10;;;;;;;40.33;7.30;;;10.90;83.80;;;;;;5091756;28;20498;-73
2022/12/24 09:00:36;;;;;;;46.97;8.23;;;10.90;83.50;;;;;;5091990;28;20400;-72
2022/12/24 09:03:02;;;;;;;46.63;7.95;;;11.00;83.00;;;;;;5095967;28;20378;-74
2022/12/24 09:05:28;;;;;;;30.80;7.80;;;11.10;82.40;;;;;;5104496;28;20485;-73
2022/12/24 09:07:54;;;;;;;40.87;8.07;;;11.10;81.70;;;;;;5101510;28;20878;-74
2022/12/24 09:10:19;;;;;;;39.60;7.63;;;11.20;80.20;;;;;;5091631;28;20394;-75
2022/12/24 09:12:45;;;;;;;39.20;7.87;;;11.20;80.20;;;;;;5095087;28;20493;-75
2022/12/24 09:15:12;;;;;;;33.70;7.27;;;11.20;81.10;;;;;;5095914;28;20438;-76
2022/12/24 09:17:38;;;;;;;37.15;7.60;;;11.30;80.00;;;;;;5093504;28;20436;-75
2022/12/24 09:20:05;;;;;;;38.05;7.50;;;11.40;78.70;;;;;;5090568;28;20394;-74
2022/12/24 09:22:33;;;;;;;41.10;7.90;;;11.40;77.30;;;;;;5078165;28;20872;-75
2022/12/24 09:24:58;;;;;;;37.80;7.38;;;11.40;78.00;;;;;;5071618;28;20386;-74
2022/12/24 09:27:24;;;;;;;38.67;8.23;;;11.40;78.30;;;;;;5071925;28;20383;-74
2022/12/24 09:29:49;;;;;;;48.80;8.60;;;11.40;78.20;;;;;;5073405;28;20384;-73
2022/12/24 09:32:15;;;;;;;44.20;7.43;;;11.40;77.90;;;;;;5091584;28;20427;-75
2022/12/24 09:34:40;;;;;;;41.60;8.07;;;11.20;80.40;;;;;;5110236;28;20416;-74
2022/12/24 09:37:07;;;;;;;42.03;7.60;;;11.20;81.20;;;;;;5101793;28;20530;-74
2022/12/24 09:39:32;;;;;;;28.73;7.47;;;11.10;81.30;;;;;;5091847;28;20386;-74
2022/12/24 09:42:06;;;;;;;39.17;6.55;;;11.10;83.00;;;;;;5089626;28;20396;-76
2022/12/24 09:44:59;;;;;;;37.83;8.10;;;11.20;80.70;;;;;;5092215;28;20690;-74
2022/12/24 09:47:40;;;;;;;37.25;6.70;;;11.40;77.90;;;;;;5094258;28;20460;-74
2022/12/24 09:50:25;;;;;;;32.17;7.55;;;11.50;76.70;;;;;;5095884;28;20401;-75
2022/12/24 09:52:52;;;;;;;37.45;7.63;;;11.60;75.90;;;;;;5095931;28;20426;-75
2022/12/24 09:55:31;;;;;;;34.10;7.20;;;11.80;73.30;;;;;;5098678;28;20439;-75
2022/12/24 09:57:58;;;;;;;37.38;7.45;;;11.90;72.10;;;;;;5097969;28;20402;-76
2022/12/24 10:00:29;;;;;;;35.80;7.82;;;12.00;72.30;;;;;;5089012;28;20384;-74
2022/12/24 10:02:54;;;;;;;38.95;8.68;;;11.90;71.40;;;;;;5093700;28;20447;-76
2022/12/24 10:05:40;;;;;;;37.33;7.72;;;12.00;70.80;;;;;;5100519;28;20799;-76
2022/12/24 10:08:29;;;;;;;46.53;8.33;;;11.90;71.80;;;;;;5099685;28;20406;-75
2022/12/24 10:11:05;;;;;;;35.50;8.05;;;12.00;70.90;;;;;;5066599;28;20388;-75
2022/12/24 10:13:50;;;;;;;38.30;7.72;;;12.00;70.70;;;;;;5095206;28;20425;-76
2022/12/24 10:16:35;;;;;;;31.95;7.60;;;12.00;71.80;;;;;;5097538;28;20414;-75
2022/12/24 10:19:24;;;;;;;38.95;8.13;;;12.10;71.50;;;;;;5096575;28;20374;-75
2022/12/24 10:21:52;;;;;;;35.05;7.80;;;12.00;71.40;;;;;;5074805;28;20372;-75
2022/12/24 10:24:24;;;;;;;38.80;8.13;;;12.00;71.70;;;;;;5094512;28;20397;-76
2022/12/24 10:27:13;;;;;;;43.60;8.35;;;12.00;71.30;;;;;;5096316;28;20703;-76
2022/12/24 10:30:01;;;;;;;39.87;8.37;;;11.90;72.40;;;;;;5096216;28;20385;-76
2022/12/24 10:32:32;;;;;;;38.42;7.20;;;11.80;73.60;;;;;;5085234;28;20898;-74
2022/12/24 10:35:15;;;;;;;38.75;7.70;;;11.80;74.70;;;;;;5095925;28;20405;-75
2022/12/24 10:37:46;;;;;;;35.88;7.95;;;11.70;75.50;;;;;;5094490;28;20412;-73
2022/12/24 10:40:39;;;;;;;43.25;8.10;;;11.70;76.00;;;;;;5093874;28;20947;-71
2022/12/24 10:43:23;;;;;;;48.03;8.82;;;11.70;75.20;;;;;;5093299;28;20386;-73
2022/12/24 10:46:02;;;;;;;48.33;10.10;;;11.80;74.60;;;;;;5093843;28;20382;-70
2022/12/24 10:48:35;;;;;;;47.80;12.32;;;11.80;76.30;;;;;;5093710;28;20397;-70
2022/12/24 10:51:05;;;;;;;41.47;9.60;;;12.00;74.50;;;;;;5093505;28;20381;-70
2022/12/24 10:53:55;;;;;;;37.92;10.20;;;12.10;73.20;;;;;;5093526;28;20457;-71
2022/12/24 10:56:20;;;;;;;44.67;8.70;;;12.10;70.60;;;;;;5092948;28;20488;-72
2022/12/24 10:58:52;;;;;;;39.85;8.68;;;11.90;73.00;;;;;;5095553;28;20478;-72
2022/12/24 11:01:18;;;;;;;41.53;9.15;;;11.70;75.40;;;;;;5093228;28;20385;-78
2022/12/24 11:03:44;;;;;;;49.60;8.85;;;11.80;75.40;;;;;;5092740;28;20909;-73
2022/12/24 11:06:19;;;;;;;43.60;8.67;;;11.80;74.50;;;;;;5093338;28;20381;-73
2022/12/24 11:08:45;;;;;;;46.42;8.48;;;11.80;74.80;;;;;;5082082;28;20402;-74
2022/12/24 11:11:14;;;;;;;39.05;8.45;;;11.90;72.60;;;;;;5093978;28;20404;-72
2022/12/24 11:13:45;;;;;;;46.45;9.20;;;12.10;69.40;;;;;;5093354;28;20396;-74
2022/12/24 11:16:11;;;;;;;39.65;9.13;;;12.20;68.70;;;;;;5087443;28;20430;-75
2022/12/24 11:18:45;;;;;;;46.20;8.57;;;12.30;68.10;;;;;;5092205;28;20418;-75
2022/12/24 11:21:17;;;;;;;45.53;9.00;;;12.30;67.70;;;;;;5100665;28;20378;-73
2022/12/24 11:23:50;;;;;;;34.70;7.40;;;12.10;68.70;;;;;;5098496;28;20490;-75
2022/12/24 11:26:21;;;;;;;41.15;7.90;;;12.10;67.70;;;;;;5104077;28;20427;-79
2022/12/24 11:29:12;;;;;;;41.92;8.32;;;12.10;66.40;;;;;;5105257;28;20374;-77
2022/12/24 11:31:37;;;;;;;30.38;7.65;;;12.40;64.90;;;;;;5104157;28;20374;-80
2022/12/24 11:34:24;;;;;;;40.93;7.27;;;12.50;62.90;;;;;;5104040;28;20400;-73
2022/12/24 11:36:50;;;;;;;38.53;7.15;;;12.80;59.60;;;;;;5108359;28;20402;-74
2022/12/24 11:39:24;;;;;;;34.53;7.85;;;13.00;58.40;;;;;;5111112;28;20390;-75
2022/12/24 11:41:51;;;;;;;40.67;7.47;;;13.10;55.50;;;;;;5107148;28;20378;-75
2022/12/24 11:44:25;;;;;;;42.22;7.88;;;13.10;55.40;;;;;;5099620;28;20382;-73
2022/12/24 11:46:55;;;;;;;36.22;8.50;;;13.00;57.50;;;;;;5096595;28;20394;-72
2022/12/24 11:49:29;;;;;;;40.63;7.75;;;13.00;58.90;;;;;;5102507;28;20397;-71
2022/12/24 11:52:09;;;;;;;49.97;8.38;;;13.00;57.60;;;;;;5091385;28;20378;-71
2022/12/24 11:55:01;;;;;;;37.72;7.40;;;13.10;58.90;;;;;;5101502;28;20495;-74
2022/12/24 11:57:42;;;;;;;32.45;7.07;;;13.00;57.90;;;;;;5085863;28;20402;-73
2022/12/24 12:00:10;;;;;;;43.67;8.10;;;13.20;57.90;;;;;;5092946;28;20396;-74
2022/12/24 12:02:39;;;;;;;35.00;7.20;;;13.30;55.80;;;;;;5094000;28;20390;-74
2022/12/24 12:05:15;;;;;;;38.88;7.45;;;13.30;55.10;;;;;;5093572;28;20421;-74
2022/12/24 12:07:41;;;;;;;38.05;7.75;;;13.30;55.40;;;;;;5093376;28;20378;-71
2022/12/24 12:10:15;;;;;;;40.67;6.82;;;13.40;55.80;;;;;;5092753;28;20414;-72
2022/12/24 12:12:45;;;;;;;36.30;7.47;;;13.40;54.80;;;;;;5096341;28;20392;-72
2022/12/24 12:15:20;;;;;;;41.30;8.18;;;13.50;53.70;;;;;;5093931;28;20759;-72
2022/12/24 12:17:58;;;;;;;39.45;7.82;;;13.60;51.90;;;;;;5094250;28;20412;-73
2022/12/24 12:20:34;;;;;;;38.22;8.20;;;13.80;50.50;;;;;;5092735;28;20481;-72
2022/12/24 12:23:23;;;;;;;32.50;7.35;;;13.90;50.10;;;;;;5091686;28;20379;-72
2022/12/24 12:25:54;;;;;;;40.05;7.15;;;13.90;51.10;;;;;;5092964;28;20405;-72
2022/12/24 12:28:47;;;;;;;40.65;8.55;;;14.00;49.40;;;;;;5092527;28;20862;-72
2022/12/24 12:31:38;;;;;;;40.22;8.35;;;14.00;49.90;;;;;;5082201;28;20398;-72
2022/12/24 12:34:18;;;;;;;33.05;8.10;;;14.00;49.50;;;;;;5094101;28;20382;-72
2022/12/24 12:36:45;;;;;;;46.78;8.32;;;14.20;48.70;;;;;;5094556;28;20427;-72
2022/12/24 12:39:11;;;;;;;48.05;8.52;;;14.30;46.80;;;;;;5093600;28;20377;-72
2022/12/24 12:41:54;;;;;;;40.47;7.95;;;14.20;46.90;;;;;;5091883;28;20378;-72
2022/12/24 12:44:52;;;;;;;43.03;9.10;;;14.10;49.60;;;;;;5092903;28;20374;-72
2022/12/24 12:47:55;;;;;;;39.13;8.43;;;14.00;49.90;;;;;;5092209;28;20480;-72
2022/12/24 12:50:26;;;;;;;39.15;7.85;;;13.90;51.10;;;;;;5095644;28;20434;-73
2022/12/24 12:53:00;;;;;;;36.93;7.70;;;13.80;50.60;;;;;;5095438;28;20781;-72
2022/12/24 12:56:08;;;;;;;33.70;8.00;;;13.80;51.10;;;;;;5094701;28;20390;-74